Time;durP1;ratioP1;P1;durP2;ratioP2;P2;SDS_P1;SDS_P2;PMS_P1;PMS_P2;Temp;Humidity;BMP_temperature;BMP_pressure;BME280_temperature;BME280_humidity;BME280_pressure;Samples;Min_cycle;Max_cycle;Signal;HPM_P1;HPM_P2
2021/06/03 00:02:14;;;;;;;2.63;2.42;;;;;;;19.21;46.57;96961.88;5031646;28;20183;-64
2021/06/03 00:04:40;;;;;;;3.30;2.78;;;;;;;19.16;47.00;96969.91;5031623;28;20194;-63
2021/06/03 00:07:06;;;;;;;3.83;2.80;;;;;;;19.16;47.21;96976.00;5030981;28;20187;-62
2021/06/03 00:09:32;;;;;;;3.00;2.70;;;;;;;19.11;47.26;96979.47;5032509;28;20620;-62
2021/06/03 00:11:57;;;;;;;3.00;2.55;;;;;;;19.13;46.84;96978.41;5030842;28;20186;-62
2021/06/03 00:14:23;;;;;;;2.38;2.17;;;;;;;19.22;46.77;96974.91;5031504;28;20678;-62
2021/06/03 00:16:48;;;;;;;3.47;2.88;;;;;;;19.23;46.87;96975.66;5030992;28;20197;-67
2021/06/03 00:19:14;;;;;;;3.78;2.80;;;;;;;19.17;46.65;96976.81;5031940;28;20182;-65
2021/06/03 00:21:43;;;;;;;3.08;2.60;;;;;;;19.13;47.32;96976.53;5031817;28;20178;-63
2021/06/03 00:24:09;;;;;;;3.13;2.75;;;;;;;19.16;47.40;96988.50;5011424;28;20194;-63
2021/06/03 00:26:35;;;;;;;3.70;2.60;;;;;;;19.19;47.54;96994.03;5012163;28;20179;-62
2021/06/03 00:29:02;;;;;;;3.38;2.88;;;;;;;19.10;47.96;96993.06;5011292;28;20210;-62
2021/06/03 00:31:28;;;;;;;7.25;2.97;;;;;;;19.05;48.21;96988.56;4994385;28;20179;-62
2021/06/03 00:33:53;;;;;;;3.13;2.80;;;;;;;18.97;48.24;96981.16;5028639;28;20242;-62
2021/06/03 00:36:19;;;;;;;4.90;3.05;;;;;;;18.87;48.44;96983.88;5030739;28;20272;-62
2021/06/03 00:38:44;;;;;;;4.05;2.78;;;;;;;18.83;48.31;96984.72;5031624;28;20186;-63
2021/06/03 00:41:11;;;;;;;4.15;2.67;;;;;;;18.77;48.34;96989.25;5029697;28;20494;-62
2021/06/03 00:43:37;;;;;;;3.28;2.60;;;;;;;18.67;48.64;96997.25;5031184;28;20182;-62
2021/06/03 00:46:04;;;;;;;2.67;2.45;;;;;;;18.60;48.85;96996.78;5012088;28;20198;-62
2021/06/03 00:48:30;;;;;;;6.20;2.90;;;;;;;18.44;50.40;97000.53;5013315;28;20659;-62
2021/06/03 00:50:59;;;;;;;3.38;3.03;;;;;;;18.43;49.91;97001.59;5012336;28;20196;-63
2021/06/03 00:53:25;;;;;;;3.47;3.05;;;;;;;18.50;49.77;96994.91;5031311;28;20186;-63
2021/06/03 00:55:53;;;;;;;2.83;2.60;;;;;;;18.50;49.63;96999.44;5030551;28;20544;-67
2021/06/03 00:58:19;;;;;;;3.03;2.75;;;;;;;18.43;50.52;97001.59;5016092;28;20187;-65
2021/06/03 01:00:46;;;;;;;3.30;3.00;;;;;;;18.37;51.07;96997.34;5031287;28;20277;-64
2021/06/03 01:03:12;;;;;;;3.95;3.10;;;;;;;18.24;51.72;96996.84;5012128;28;20664;-63
2021/06/03 01:05:43;;;;;;;2.97;2.70;;;;;;;18.14;52.26;97001.41;5031258;28;20268;-63
2021/06/03 01:08:12;;;;;;;2.60;2.40;;;;;;;18.13;52.94;96999.81;5012141;28;20209;-64
2021/06/03 01:10:48;;;;;;;2.40;2.20;;;;;;;18.18;53.51;97005.88;5031341;28;20233;-63
2021/06/03 01:13:41;;;;;;;2.92;2.35;;;;;;;18.16;54.47;96997.44;5030832;28;20186;-65
2021/06/03 01:16:07;;;;;;;2.65;2.45;;;;;;;18.07;54.77;97001.66;5012578;28;20175;-63
2021/06/03 01:18:37;;;;;;;6.97;2.40;;;;;;;18.08;54.93;97005.13;5031427;28;20186;-63
2021/06/03 01:21:06;;;;;;;2.60;2.40;;;;;;;18.13;55.22;97007.75;5029630;28;20197;-63
2021/06/03 01:23:42;;;;;;;2.63;2.42;;;;;;;18.11;56.01;97000.06;5013315;28;20198;-63
2021/06/03 01:26:08;;;;;;;2.50;2.30;;;;;;;17.99;56.33;96998.78;5029399;28;20996;-63
2021/06/03 01:28:35;;;;;;;2.70;2.40;;;;;;;17.92;56.64;97000.91;5012891;28;20620;-62
2021/06/03 01:31:01;;;;;;;2.83;2.60;;;;;;;17.90;56.96;97003.81;5030290;28;20182;-63
2021/06/03 01:33:33;;;;;;;2.97;2.47;;;;;;;17.88;56.99;96998.00;5029814;28;20297;-63
2021/06/03 01:36:02;;;;;;;2.70;2.50;;;;;;;17.93;56.98;96994.53;5011907;28;20183;-63
2021/06/03 01:38:31;;;;;;;2.50;2.30;;;;;;;17.88;57.50;97010.47;5012901;28;20208;-63
2021/06/03 01:40:59;;;;;;;2.60;2.42;;;;;;;17.82;57.68;97009.69;5029984;28;20183;-63
2021/06/03 01:43:27;;;;;;;2.50;2.30;;;;;;;17.80;57.88;97011.78;5013176;28;20187;-63
2021/06/03 01:45:55;;;;;;;2.47;2.28;;;;;;;17.91;57.61;97015.22;5012403;28;20280;-67
2021/06/03 01:48:21;;;;;;;2.20;2.10;;;;;;;17.88;57.75;97010.47;5030653;28;20207;-62
2021/06/03 01:50:49;;;;;;;2.72;2.33;;;;;;;18.03;57.80;97005.94;5030364;28;20182;-62
2021/06/03 01:53:17;;;;;;;3.20;2.42;;;;;;;17.95;58.43;97003.00;5029576;28;20190;-62
2021/06/03 01:55:44;;;;;;;2.05;1.95;;;;;;;17.78;59.61;97017.34;5013846;28;20859;-63
2021/06/03 01:58:10;;;;;;;2.47;2.28;;;;;;;17.77;60.33;97015.78;5033653;28;20391;-62
2021/06/03 02:00:35;;;;;;;2.97;2.30;;;;;;;17.78;60.81;97020.00;5033940;28;20188;-62
2021/06/03 02:03:01;;;;;;;4.22;2.20;;;;;;;17.71;61.74;97014.19;5033481;28;20186;-62
2021/06/03 02:05:27;;;;;;;2.35;2.15;;;;;;;17.63;62.30;97020.03;5033962;28;20182;-62
2021/06/03 02:07:53;;;;;;;2.15;1.95;;;;;;;17.62;62.13;97015.78;5033325;28;20205;-68
2021/06/03 02:10:20;;;;;;;2.55;2.10;;;;;;;17.64;62.53;97016.31;5033964;28;20198;-63
2021/06/03 02:12:53;;;;;;;2.28;2.17;;;;;;;17.65;62.19;97027.72;5033422;28;20199;-63
2021/06/03 02:15:22;;;;;;;2.75;2.50;;;;;;;17.65;62.54;97025.06;5033712;28;20635;-62
2021/06/03 02:17:51;;;;;;;2.72;2.47;;;;;;;17.67;62.14;97021.06;5033997;28;20194;-62
2021/06/03 02:20:22;;;;;;;2.22;2.13;;;;;;;17.69;62.04;97024.25;5033544;28;20222;-62
2021/06/03 02:22:49;;;;;;;2.75;2.53;;;;;;;17.67;62.22;97023.72;5015779;28;20240;-63
2021/06/03 02:25:16;;;;;;;2.35;1.88;;;;;;;17.79;61.85;97018.16;5033026;28;20201;-62
2021/06/03 02:27:43;;;;;;;2.30;1.98;;;;;;;17.76;61.70;97019.50;5033609;28;20217;-63
2021/06/03 02:30:10;;;;;;;3.58;2.65;;;;;;;17.89;61.27;97022.69;5032811;28;20601;-62
2021/06/03 02:32:36;;;;;;;2.25;2.08;;;;;;;17.90;60.96;97019.72;5032967;28;20250;-64
2021/06/03 02:35:09;;;;;;;2.53;2.33;;;;;;;17.89;61.01;97017.38;5032124;28;20588;-63
2021/06/03 02:37:39;;;;;;;2.55;2.35;;;;;;;17.96;61.53;97020.53;5033629;28;20178;-63
2021/06/03 02:40:09;;;;;;;3.17;2.50;;;;;;;18.07;62.03;97016.78;5032491;28;20621;-63
2021/06/03 02:42:35;;;;;;;6.45;2.25;;;;;;;18.14;62.52;97017.31;5015505;28;20712;-63
2021/06/03 02:45:01;;;;;;;3.08;2.67;;;;;;;18.08;62.33;97026.34;5014790;28;20193;-63
2021/06/03 02:47:26;;;;;;;4.95;2.83;;;;;;;18.22;61.30;97022.09;5033448;28;20187;-63
2021/06/03 02:49:52;;;;;;;2.47;2.28;;;;;;;18.17;61.50;97025.53;5032896;28;20179;-67
2021/06/03 02:52:18;;;;;;;2.40;2.20;;;;;;;18.08;61.21;97026.34;5032612;28;20206;-63
2021/06/03 02:54:43;;;;;;;4.40;2.92;;;;;;;18.02;61.29;97032.72;5032700;28;20198;-62
2021/06/03 02:57:09;;;;;;;4.75;3.10;;;;;;;17.99;61.49;97035.91;5032532;28;20187;-62
2021/06/03 02:59:34;;;;;;;5.35;3.20;;;;;;;17.99;61.34;97028.75;5033004;28;20266;-62
2021/06/03 03:02:00;;;;;;;7.13;3.50;;;;;;;17.86;61.65;97034.59;5031781;28;20278;-63
2021/06/03 03:04:25;;;;;;;8.35;3.45;;;;;;;18.02;61.53;97030.88;5032867;28;20539;-64
2021/06/03 03:06:51;;;;;;;5.95;3.72;;;;;;;18.00;61.32;97034.84;5032804;28;20189;-62
2021/06/03 03:09:16;;;;;;;7.00;3.45;;;;;;;17.96;61.18;97039.88;5031726;28;20218;-62
2021/06/03 03:11:42;;;;;;;6.70;3.70;;;;;;;17.98;60.32;97037.78;5015232;28;20652;-62
2021/06/03 03:14:07;;;;;;;10.65;4.45;;;;;;;17.76;60.79;97042.56;5032595;28;20186;-63
2021/06/03 03:16:33;;;;;;;4.72;2.95;;;;;;;17.65;62.17;97038.31;5032868;28;20193;-63
2021/06/03 03:18:58;;;;;;;3.55;2.60;;;;;;;17.67;62.62;97041.47;5032000;28;20221;-63
2021/06/03 03:21:24;;;;;;;3.50;2.92;;;;;;;17.70;62.71;97044.41;5032662;28;20190;-64
2021/06/03 03:23:49;;;;;;;4.50;2.80;;;;;;;17.79;62.77;97044.66;5033309;28;20210;-63
2021/06/03 03:26:14;;;;;;;3.15;2.75;;;;;;;17.57;63.94;97049.41;5031786;28;20228;-64
2021/06/03 03:28:40;;;;;;;2.88;2.67;;;;;;;17.55;64.38;97052.34;5032374;28;20237;-64
2021/06/03 03:31:05;;;;;;;2.78;2.58;;;;;;;17.53;64.65;97061.59;5031874;28;20190;-63
2021/06/03 03:33:31;;;;;;;2.50;2.30;;;;;;;17.64;64.51;97057.94;5030539;28;20234;-64
2021/06/03 03:35:57;;;;;;;3.15;2.40;;;;;;;17.76;64.31;97055.81;5031971;28;20650;-64
2021/06/03 03:38:22;;;;;;;3.60;2.70;;;;;;;17.85;64.12;97064.81;5015003;28;20179;-63
2021/06/03 03:40:49;;;;;;;3.40;2.45;;;;;;;17.84;64.02;97063.22;5014504;28;20302;-63
2021/06/03 03:43:15;;;;;;;3.13;2.90;;;;;;;17.87;63.92;97057.41;5031709;28;20778;-63
2021/06/03 03:45:40;;;;;;;4.45;2.70;;;;;;;17.90;63.82;97067.47;5032511;28;20182;-64
2021/06/03 03:48:06;;;;;;;3.67;2.95;;;;;;;18.01;63.62;97061.09;5031350;28;20213;-64
2021/06/03 03:50:33;;;;;;;3.30;2.85;;;;;;;17.98;63.78;97060.84;5031805;28;20186;-64
2021/06/03 03:52:59;;;;;;;3.45;2.60;;;;;;;18.08;63.71;97063.47;5031573;28;20209;-64
2021/06/03 03:55:25;;;;;;;4.22;2.58;;;;;;;18.30;63.11;97063.97;5032006;28;20213;-63
2021/06/03 03:57:51;;;;;;;3.08;2.70;;;;;;;18.41;62.60;97062.09;5032221;28;20187;-64
2021/06/03 04:00:29;;;;;;;3.28;2.58;;;;;;;18.57;62.43;97076.94;5031507;28;20213;-63
2021/06/03 04:02:54;;;;;;;7.97;3.90;;;;;;;18.67;61.80;97072.41;5031301;28;20564;-68
2021/06/03 04:05:20;;;;;;;12.40;4.60;;;;;;;18.66;61.44;97068.19;5032140;28;20244;-63
2021/06/03 04:07:46;;;;;;;12.02;4.53;;;;;;;18.63;61.59;97071.34;5032015;28;20206;-62
2021/06/03 04:10:17;;;;;;;11.80;4.25;;;;;;;18.52;61.65;97076.94;5031258;28;20393;-62
2021/06/03 04:12:43;;;;;;;8.75;3.80;;;;;;;18.40;61.85;97085.19;5032403;28;20612;-62
2021/06/03 04:15:09;;;;;;;4.93;3.20;;;;;;;18.36;61.85;97086.78;5030892;28;20178;-62
2021/06/03 04:17:35;;;;;;;3.58;3.10;;;;;;;18.33;62.01;97083.88;5031763;28;20266;-63
2021/06/03 04:20:01;;;;;;;2.95;2.65;;;;;;;18.29;62.13;97083.63;5030912;28;20309;-63
2021/06/03 04:22:26;;;;;;;3.63;3.30;;;;;;;18.31;62.13;97081.50;5032085;28;20613;-63
2021/06/03 04:24:52;;;;;;;3.00;2.80;;;;;;;18.35;62.31;97089.72;5031301;28;20190;-69
2021/06/03 04:27:18;;;;;;;3.10;2.80;;;;;;;18.35;62.14;97079.88;5031176;28;20185;-63
2021/06/03 04:29:43;;;;;;;3.70;3.00;;;;;;;18.29;62.40;97084.41;5013705;28;20265;-63
2021/06/03 04:32:09;;;;;;;5.78;3.28;;;;;;;18.29;62.47;97087.06;5030704;28;20220;-64
2021/06/03 04:34:35;;;;;;;6.72;3.83;;;;;;;18.33;62.30;97092.66;5030943;28;20632;-63
2021/06/03 04:37:01;;;;;;;8.43;3.78;;;;;;;18.29;62.75;97094.22;5013214;28;20190;-63
2021/06/03 04:39:28;;;;;;;10.38;4.25;;;;;;;18.45;62.12;97093.13;5031519;28;20277;-63
2021/06/03 04:41:53;;;;;;;12.65;4.50;;;;;;;18.39;62.19;97104.81;5030552;28;20190;-68
2021/06/03 04:44:19;;;;;;;16.83;5.22;;;;;;;18.30;62.36;97103.78;5013547;28;20197;-63
2021/06/03 04:46:44;;;;;;;17.67;6.00;;;;;;;18.39;62.22;97104.06;5031680;28;20183;-63
2021/06/03 04:49:10;;;;;;;18.85;6.18;;;;;;;18.44;62.00;97104.03;5030516;28;20246;-63
2021/06/03 04:51:38;;;;;;;12.13;4.63;;;;;;;18.50;61.98;97103.75;5031321;28;20187;-63
2021/06/03 04:54:04;;;;;;;13.48;5.28;;;;;;;18.39;62.54;97110.13;5030988;28;20192;-63
2021/06/03 04:56:30;;;;;;;19.58;6.53;;;;;;;18.53;62.25;97099.75;5013660;28;20274;-63
2021/06/03 04:58:55;;;;;;;18.70;6.88;;;;;;;18.50;62.29;97108.28;5030929;28;20274;-68
2021/06/03 05:01:21;;;;;;;21.35;6.85;;;;;;;18.60;61.93;97109.09;5031151;28;20694;-63
2021/06/03 05:03:46;;;;;;;7.68;4.55;;;;;;;18.54;62.20;97115.47;5031366;28;20201;-63
2021/06/03 05:06:12;;;;;;;4.93;3.85;;;;;;;18.51;62.31;97113.31;5030561;28;20187;-65
2021/06/03 05:08:37;;;;;;;4.10;3.65;;;;;;;18.46;62.37;97123.94;5030962;28;20202;-63
2021/06/03 05:11:02;;;;;;;3.58;3.28;;;;;;;18.31;62.68;97115.19;5030540;28;20191;-63
2021/06/03 05:13:30;;;;;;;3.85;3.50;;;;;;;18.31;62.80;97131.13;5031472;28;20182;-63
2021/06/03 05:15:56;;;;;;;3.67;3.38;;;;;;;18.25;63.00;97130.34;5030878;28;20179;-69
2021/06/03 05:18:21;;;;;;;6.00;3.53;;;;;;;18.23;63.27;97127.94;5031167;28;20228;-63
2021/06/03 05:20:47;;;;;;;5.72;3.92;;;;;;;18.22;63.76;97129.00;5030823;28;20624;-66
2021/06/03 05:23:14;;;;;;;8.55;3.83;;;;;;;18.31;63.37;97134.56;5028049;28;20675;-64
2021/06/03 05:25:39;;;;;;;5.10;4.03;;;;;;;18.33;63.90;97134.31;5029243;28;20183;-63
2021/06/03 05:28:05;;;;;;;4.30;3.90;;;;;;;18.44;63.45;97135.91;5029242;28;20222;-63
2021/06/03 05:30:30;;;;;;;4.30;2.95;;;;;;;18.49;63.54;97131.38;5031241;28;20677;-63
2021/06/03 05:32:56;;;;;;;3.13;2.83;;;;;;;18.49;63.79;97141.19;5012231;28;20223;-68
2021/06/03 05:35:23;;;;;;;3.47;2.90;;;;;;;18.51;63.94;97141.69;5014575;28;20274;-65
2021/06/03 05:37:49;;;;;;;3.63;3.22;;;;;;;18.72;63.42;97143.31;5015035;28;20187;-63
2021/06/03 05:40:21;;;;;;;3.25;2.95;;;;;;;18.76;63.45;97149.66;5014510;28;20171;-63
2021/06/03 05:42:51;;;;;;;2.70;2.50;;;;;;;18.93;63.14;97147.50;5013993;28;20636;-63
2021/06/03 05:45:17;;;;;;;3.13;2.58;;;;;;;19.30;62.39;97151.59;5014278;28;20183;-64
2021/06/03 05:47:43;;;;;;;4.38;2.58;;;;;;;19.55;61.61;97148.84;5014634;28;20286;-64
2021/06/03 05:50:11;;;;;;;3.15;2.80;;;;;;;20.02;60.71;97155.44;5014209;28;20192;-63
2021/06/03 05:52:38;;;;;;;2.65;2.38;;;;;;;20.62;59.32;97152.28;5014809;28;20191;-63
2021/06/03 05:55:05;;;;;;;3.25;2.50;;;;;;;21.36;57.44;97150.16;5014111;28;20191;-63
2021/06/03 05:57:31;;;;;;;2.28;2.08;;;;;;;22.01;55.62;97158.38;5015059;28;20187;-64
2021/06/03 05:59:57;;;;;;;3.60;2.35;;;;;;;22.49;53.92;97154.38;5014271;28;20187;-69
2021/06/03 06:02:31;;;;;;;2.33;2.10;;;;;;;22.75;53.11;97166.22;5013957;28;20187;-65
2021/06/03 06:07:41;;;;;;;2.50;2.33;;;;;;;22.82;52.56;97165.03;5014850;28;20313;-64
2021/06/03 06:10:07;;;;;;;3.03;2.10;;;;;;;22.87;53.07;97168.41;5013965;28;20175;-64
2021/06/03 06:12:32;;;;;;;2.45;2.17;;;;;;;22.71;53.16;97159.06;5014369;28;20184;-65
2021/06/03 06:14:58;;;;;;;2.10;1.98;;;;;;;22.32;55.28;97170.16;5013800;28;20195;-70
2021/06/03 06:17:23;;;;;;;2.70;1.88;;;;;;;22.40;55.65;97182.84;5012907;28;20630;-64
2021/06/03 06:19:48;;;;;;;2.60;2.40;;;;;;;22.29;56.81;97178.75;5014552;28;20183;-64
2021/06/03 06:22:15;;;;;;;3.15;1.92;;;;;;;22.10;57.35;97183.31;5013273;28;21020;-64
2021/06/03 06:24:41;;;;;;;3.13;1.95;;;;;;;21.98;57.87;97181.09;5014577;28;20184;-65
2021/06/03 06:27:06;;;;;;;2.47;2.30;;;;;;;21.83;58.89;97179.41;5013603;28;20194;-64
2021/06/03 06:29:32;;;;;;;2.20;2.10;;;;;;;21.78;59.17;97186.69;5014066;28;20203;-65
2021/06/03 06:31:57;;;;;;;2.45;2.20;;;;;;;21.64;60.26;97185.81;5013163;28;20183;-69
2021/06/03 06:34:23;;;;;;;2.35;2.17;;;;;;;21.58;60.37;97196.53;5032522;28;20257;-64
2021/06/03 06:36:48;;;;;;;2.35;2.20;;;;;;;21.66;59.41;97197.00;5033859;28;20321;-63
2021/06/03 06:39:17;;;;;;;2.58;2.35;;;;;;;21.64;58.76;97193.81;5032969;28;20202;-64
2021/06/03 06:41:42;;;;;;;3.50;3.05;;;;;;;21.46;59.50;97196.16;5033281;28;20183;-65
2021/06/03 06:44:08;;;;;;;2.08;1.98;;;;;;;21.30;59.53;97193.97;5032604;28;20539;-64
2021/06/03 06:46:33;;;;;;;2.17;2.08;;;;;;;21.32;59.34;97189.94;5015972;28;20197;-63
2021/06/03 06:48:59;;;;;;;2.40;2.20;;;;;;;21.20;59.73;97194.09;5032923;28;20207;-71
2021/06/03 06:51:24;;;;;;;3.28;2.42;;;;;;;20.93;60.49;97199.97;5033370;28;20183;-63
2021/06/03 06:53:50;;;;;;;2.63;2.30;;;;;;;21.05;59.81;97195.84;5033268;28;20194;-63
2021/06/03 06:56:15;;;;;;;2.63;2.42;;;;;;;21.10;60.21;97198.44;5031797;28;20240;-63
2021/06/03 06:58:41;;;;;;;3.10;2.60;;;;;;;21.05;60.93;97201.16;5033477;28;20187;-63
2021/06/03 07:01:07;;;;;;;2.75;2.55;;;;;;;21.00;61.30;97200.44;5031870;28;20182;-64
2021/06/03 07:03:32;;;;;;;2.80;2.60;;;;;;;20.94;62.29;97206.88;5033169;28;20182;-63
2021/06/03 07:05:57;;;;;;;4.28;2.50;;;;;;;21.06;62.03;97199.28;5033205;28;20182;-69
2021/06/03 07:08:23;;;;;;;2.90;2.70;;;;;;;21.00;62.20;97198.56;5032738;28;20214;-63
2021/06/03 07:10:50;;;;;;;2.65;2.45;;;;;;;21.07;62.07;97193.66;5032566;28;20644;-63
2021/06/03 07:13:16;;;;;;;3.00;2.80;;;;;;;21.06;62.21;97201.97;5032236;28;20646;-63
2021/06/03 07:15:41;;;;;;;2.88;2.60;;;;;;;21.23;61.46;97194.34;5032939;28;20190;-64
2021/06/03 07:18:07;;;;;;;3.20;2.90;;;;;;;21.22;61.57;97202.59;5032251;28;20183;-64
2021/06/03 07:20:34;;;;;;;3.15;2.85;;;;;;;21.38;60.48;97204.81;5032814;28;20266;-66
2021/06/03 07:23:03;;;;;;;2.60;2.40;;;;;;;21.34;60.68;97200.34;5032802;28;20195;-70
2021/06/03 07:25:29;;;;;;;2.90;2.70;;;;;;;21.54;59.94;97200.88;5032169;28;20182;-63
2021/06/03 07:27:55;;;;;;;2.58;2.38;;;;;;;21.68;59.94;97205.53;5032444;28;20213;-64
2021/06/03 07:30:23;;;;;;;3.15;2.50;;;;;;;21.81;59.51;97210.13;5031673;28;20254;-63
2021/06/03 07:32:48;;;;;;;2.42;2.25;;;;;;;21.81;59.59;97207.47;5030061;28;20567;-64
2021/06/03 07:35:14;;;;;;;2.53;2.33;;;;;;;21.98;58.84;97210.44;5030951;28;20273;-64
2021/06/03 07:37:42;;;;;;;4.15;2.42;;;;;;;22.21;58.00;97206.91;5031763;28;20197;-62
2021/06/03 07:40:10;;;;;;;2.80;2.60;;;;;;;22.30;57.72;97207.03;5012037;28;20179;-63
2021/06/03 07:42:36;;;;;;;2.70;2.50;;;;;;;22.33;58.78;97207.25;5027178;28;20274;-64
2021/06/03 07:45:06;;;;;;;3.05;2.85;;;;;;;22.56;58.13;97207.44;5030114;28;20197;-65
2021/06/03 07:47:31;;;;;;;2.75;2.55;;;;;;;22.64;58.08;97201.41;5031194;28;20198;-63
2021/06/03 07:49:57;;;;;;;2.67;2.42;;;;;;;22.72;57.77;97214.13;5030980;28;20187;-66
2021/06/03 07:52:22;;;;;;;2.85;2.65;;;;;;;22.65;57.49;97206.47;5031431;28;20551;-63
2021/06/03 07:54:47;;;;;;;2.22;2.10;;;;;;;22.78;57.17;97211.09;5011774;28;20269;-63
2021/06/03 07:57:13;;;;;;;2.70;2.50;;;;;;;22.87;56.55;97205.84;5030599;28;20209;-62
2021/06/03 07:59:38;;;;;;;2.70;2.50;;;;;;;22.99;56.20;97202.69;5031690;28;20277;-63
2021/06/03 08:02:04;;;;;;;2.55;2.35;;;;;;;23.27;56.06;97206.16;5030941;28;20243;-66
2021/06/03 08:04:29;;;;;;;2.50;2.30;;;;;;;23.20;55.36;97202.00;5031958;28;20270;-63
2021/06/03 08:06:54;;;;;;;2.20;2.00;;;;;;;23.28;55.91;97202.41;5031699;28;20191;-63
2021/06/03 08:09:20;;;;;;;2.30;2.10;;;;;;;23.30;55.92;97208.22;5030055;28;20907;-63
2021/06/03 08:11:46;;;;;;;2.55;2.20;;;;;;;23.28;55.96;97208.56;5012009;28;20720;-61
2021/06/03 08:14:13;;;;;;;2.28;2.08;;;;;;;23.51;55.17;97204.91;5028723;28;20679;-63
2021/06/03 08:16:39;;;;;;;2.45;2.25;;;;;;;23.50;55.60;97205.19;5031578;28;20276;-63
2021/06/03 08:19:05;;;;;;;2.95;2.10;;;;;;;23.63;55.10;97199.81;5030928;28;20584;-64
2021/06/03 08:21:31;;;;;;;4.05;2.53;;;;;;;23.71;55.27;97197.53;5030529;28;20190;-63
2021/06/03 08:23:56;;;;;;;2.53;2.33;;;;;;;23.56;55.72;97204.00;5028531;28;20183;-63
2021/06/03 08:26:24;;;;;;;2.50;2.30;;;;;;;23.48;55.65;97202.03;5013091;28;20228;-64
2021/06/03 08:28:50;;;;;;;2.50;2.40;;;;;;;23.40;55.91;97200.81;5030418;28;20206;-65
2021/06/03 08:31:15;;;;;;;2.08;1.98;;;;;;;23.33;57.01;97197.75;5029774;28;20220;-64
2021/06/03 08:33:41;;;;;;;2.60;2.40;;;;;;;23.30;57.64;97203.69;5031112;28;20579;-63
2021/06/03 08:36:06;;;;;;;2.70;2.50;;;;;;;23.52;57.18;97201.13;5012604;28;20202;-63
2021/06/03 08:38:32;;;;;;;2.40;2.30;;;;;;;23.52;56.45;97201.13;5031297;28;20197;-63
2021/06/03 08:40:59;;;;;;;2.35;2.15;;;;;;;23.53;56.79;97207.25;5030635;28;20635;-66
2021/06/03 08:43:32;;;;;;;2.55;2.10;;;;;;;23.75;55.40;97193.94;5030242;28;20245;-63
2021/06/03 08:45:59;;;;;;;2.42;2.22;;;;;;;23.84;54.45;97202.06;5030844;28;20171;-66
2021/06/03 08:48:25;;;;;;;2.10;2.00;;;;;;;24.14;54.94;97206.72;5030452;28;20205;-63
2021/06/03 08:51:02;;;;;;;2.00;1.90;;;;;;;24.34;53.66;97203.63;5031007;28;20657;-63
2021/06/03 08:53:28;;;;;;;2.53;2.38;;;;;;;24.44;53.41;97195.31;5030995;28;20635;-64
2021/06/03 08:58:39;;;;;;;2.97;1.90;;;;;;;24.48;51.60;97190.13;5030900;28;20245;-63
2021/06/03 09:01:05;;;;;;;1.80;1.70;;;;;;;24.60;50.68;97205.66;5030547;28;20190;-66
2021/06/03 09:03:32;;;;;;;2.58;2.00;;;;;;;24.65;50.88;97194.81;5030734;28;20695;-63
2021/06/03 09:05:58;;;;;;;2.00;1.90;;;;;;;24.71;50.60;97201.63;5032403;28;20218;-65
2021/06/03 09:08:26;;;;;;;2.15;2.00;;;;;;;24.64;51.09;97199.38;5034317;28;20287;-66
2021/06/03 09:11:04;;;;;;;2.85;2.15;;;;;;;24.66;50.32;97193.72;5017605;28;20183;-65
2021/06/03 09:13:41;;;;;;;1.65;1.52;;;;;;;24.89;50.06;97197.19;5034532;28;20175;-65
2021/06/03 09:16:09;;;;;;;1.63;1.52;;;;;;;25.05;48.31;97198.38;5032760;28;20193;-64
2021/06/03 09:18:41;;;;;;;1.92;1.73;;;;;;;25.14;48.98;97186.56;5035041;28;20190;-68
2021/06/03 09:21:22;;;;;;;2.70;2.50;;;;;;;24.98;51.66;97198.00;5034541;28;20179;-66
2021/06/03 09:23:56;;;;;;;5.00;2.08;;;;;;;25.00;49.60;97187.78;5034470;28;20232;-67
2021/06/03 09:26:23;;;;;;;2.10;2.00;;;;;;;25.08;49.60;97185.09;5016218;28;20175;-68
2021/06/03 09:28:53;;;;;;;2.38;2.17;;;;;;;24.98;48.78;97182.72;5034436;28;20211;-65
2021/06/03 09:31:28;;;;;;;2.45;2.22;;;;;;;25.00;50.94;97179.72;5033800;28;20187;-63
2021/06/03 09:33:59;;;;;;;14.45;9.23;;;;;;;24.57;51.19;97184.84;5015772;28;20257;-62
2021/06/03 09:36:58;;;;;;;2.72;2.53;;;;;;;24.79;51.47;97187.50;5036154;28;21010;-62
2021/06/03 09:39:31;;;;;;;3.25;3.03;;;;;;;24.83;50.50;97188.44;5028592;28;20179;-62
2021/06/03 09:42:03;;;;;;;239.55;205.63;;;;;;;25.12;50.59;97193.34;5034282;28;20681;-62
2021/06/03 09:44:40;;;;;;;273.92;197.35;;;;;;;25.18;49.75;97184.06;5033708;28;20190;-62
2021/06/03 09:47:10;;;;;;;24.20;15.63;;;;;;;25.29;49.45;97180.00;5029229;28;20200;-61
2021/06/03 09:49:39;;;;;;;13.20;9.38;;;;;;;25.48;48.95;97190.44;5035037;28;20202;-62
2021/06/03 09:52:05;;;;;;;212.85;192.15;;;;;;;25.79;48.82;97182.34;5032598;28;20273;-62
2021/06/03 09:54:31;;;;;;;15.90;14.32;;;;;;;26.00;47.30;97183.28;5033589;28;20294;-62
2021/06/03 09:57:10;;;;;;;7.18;6.15;;;;;;;26.22;47.03;97176.94;5032973;28;20190;-63
2021/06/03 09:59:45;;;;;;;2.95;2.70;;;;;;;26.42;46.49;97174.41;5015227;28;20175;-63
2021/06/03 10:02:20;;;;;;;2.83;2.63;;;;;;;26.23;46.44;97173.19;5032545;28;20189;-63
2021/06/03 10:04:52;;;;;;;2.92;2.53;;;;;;;25.84;46.79;97174.13;5016520;28;20623;-62
2021/06/03 10:07:20;;;;;;;2.15;2.05;;;;;;;25.77;46.63;97165.72;5032918;28;20256;-63
2021/06/03 10:09:54;;;;;;;2.80;2.60;;;;;;;25.95;46.21;97168.13;5030731;28;20225;-64
2021/06/03 10:12:22;;;;;;;2.40;2.22;;;;;;;25.91;46.37;97163.69;5033680;28;20643;-64
2021/06/03 10:14:58;;;;;;;2.28;2.17;;;;;;;26.03;46.37;97171.91;5033498;28;20191;-64
2021/06/03 10:17:50;;;;;;;2.20;2.10;;;;;;;26.15;46.26;97169.38;5031929;28;20327;-60
2021/06/03 10:20:38;;;;;;;2.25;2.15;;;;;;;26.38;44.65;97167.31;5028939;28;20441;-63
2021/06/03 10:23:07;;;;;;;1.85;1.75;;;;;;;26.41;44.24;97167.50;5024773;28;20183;-62
2021/06/03 10:25:34;;;;;;;2.92;1.80;;;;;;;26.26;44.38;97167.16;5033530;28;20206;-63
2021/06/03 10:28:10;;;;;;;2.70;2.20;;;;;;;26.27;43.87;97171.44;5015746;28;20210;-63
2021/06/03 10:30:41;;;;;;;1.60;1.60;;;;;;;26.31;43.25;97172.38;5033215;28;20268;-63
2021/06/03 10:33:13;;;;;;;1.80;1.70;;;;;;;26.26;42.72;97176.03;5032421;28;20230;-62
2021/06/03 10:35:41;;;;;;;1.75;1.65;;;;;;;26.22;42.77;97167.00;5033029;28;20190;-63
2021/06/03 10:38:08;;;;;;;1.98;1.83;;;;;;;26.27;43.21;97166.06;5032552;28;20194;-62
2021/06/03 10:40:37;;;;;;;1.90;1.80;;;;;;;26.44;41.86;97164.16;5030827;28;20643;-63
2021/06/03 10:43:04;;;;;;;1.73;1.63;;;;;;;26.55;41.71;97161.91;5031636;28;20205;-63
2021/06/03 10:45:31;;;;;;;1.77;1.70;;;;;;;26.63;41.39;97161.09;5031031;28;20187;-63
2021/06/03 10:47:57;;;;;;;1.88;1.77;;;;;;;26.50;41.83;97164.78;5033439;28;20206;-65
2021/06/03 10:50:31;;;;;;;1.85;1.75;;;;;;;26.18;42.50;97162.59;5032550;28;20751;-65
2021/06/03 10:53:05;;;;;;;1.70;1.70;;;;;;;26.03;42.81;97156.56;5033271;28;20631;-64
2021/06/03 10:55:33;;;;;;;1.90;1.80;;;;;;;25.83;43.78;97154.53;5032414;28;20214;-63
2021/06/03 10:58:02;;;;;;;2.00;1.80;;;;;;;25.65;43.87;97153.72;5033148;28;20182;-63
2021/06/03 11:00:37;;;;;;;2.45;2.25;;;;;;;25.33;44.97;97156.78;5032260;28;20210;-64
2021/06/03 11:03:15;;;;;;;2.03;1.92;;;;;;;25.59;44.44;97154.97;5033160;28;20186;-64
2021/06/03 11:05:47;;;;;;;1.90;1.80;;;;;;;25.73;44.07;97148.66;5032776;28;20197;-65
2021/06/03 11:08:36;;;;;;;2.00;1.90;;;;;;;25.74;45.22;97145.69;5031917;28;20210;-66
2021/06/03 11:11:11;;;;;;;2.72;2.08;;;;;;;25.87;43.87;97150.09;5032370;28;20178;-65
2021/06/03 11:13:57;;;;;;;2.08;1.88;;;;;;;26.03;43.54;97150.41;5032742;28;20265;-65
2021/06/03 11:16:27;;;;;;;2.10;1.90;;;;;;;26.10;43.52;97150.72;5030492;28;20265;-65
2021/06/03 11:18:58;;;;;;;1.77;1.67;;;;;;;26.38;43.22;97151.19;5032733;28;20272;-65
2021/06/03 11:21:33;;;;;;;2.10;1.98;;;;;;;26.60;42.01;97148.28;5031861;28;20190;-64
2021/06/03 11:24:04;;;;;;;6.10;1.80;;;;;;;26.71;42.14;97141.44;5032311;28;20541;-65
2021/06/03 11:26:39;;;;;;;1.90;1.80;;;;;;;26.59;41.99;97143.22;5031738;28;20171;-65
2021/06/03 11:29:08;;;;;;;1.75;1.65;;;;;;;26.71;41.86;97146.81;5013645;28;20206;-63
2021/06/03 11:31:33;;;;;;;2.00;1.90;;;;;;;26.67;42.15;97145.13;5031981;28;20266;-65
2021/06/03 11:34:40;;;;;;;1.70;1.60;;;;;;;26.76;42.78;97143.97;5031320;28;20674;-63
2021/06/03 11:37:25;;;;;;;3.08;1.85;;;;;;;26.70;42.25;97144.44;4963627;28;20308;-65
2021/06/03 11:40:00;;;;;;;2.03;1.92;;;;;;;26.71;42.32;97148.72;5027889;28;20198;-66
2021/06/03 11:42:41;;;;;;;2.78;2.10;;;;;;;26.83;41.50;97138.88;5031227;28;20742;-66